sensor_id;sensor_type;location;lat;lon;timestamp;P1;durP1;ratioP1;P2;durP2;ratioP2
52934;SDS011;38802;50.198;19.796;2024-01-15T00:01:23;11.10;;;8.60;;
52934;SDS011;38802;50.198;19.796;2024-01-15T00:03:51;12.40;;;8.90;;
52934;SDS011;38802;50.198;19.796;2024-01-15T00:06:19;10.10;;;8.80;;
52934;SDS011;38802;50.198;19.796;2024-01-15T00:08:48;12.40;;;8.10;;
52934;SDS011;38802;50.198;19.796;2024-01-15T00:11:16;12.50;;;8.40;;
52934;SDS011;38802;50.198;19.796;2024-01-15T00:13:44;11.20;;;8.20;;
52934;SDS011;38802;50.198;19.796;2024-01-15T00:16:12;9.90;;;8.10;;
52934;SDS011;38802;50.198;19.796;2024-01-15T00:18:40;11.40;;;8.80;;
52934;SDS011;38802;50.198;19.796;2024-01-15T00:21:08;14.80;;;9.90;;
52934;SDS011;38802;50.198;19.796;2024-01-15T00:23:36;12.20;;;8.60;;
52934;SDS011;38802;50.198;19.796;2024-01-15T00:26:04;10.30;;;7.80;;
52934;SDS011;38802;50.198;19.796;2024-01-15T00:28:35;12.20;;;8.10;;
52934;SDS011;38802;50.198;19.796;2024-01-15T00:31:07;12.30;;;8.50;;
52934;SDS011;38802;50.198;19.796;2024-01-15T00:33:35;10.60;;;8.10;;
52934;SDS011;38802;50.198;19.796;2024-01-15T00:36:03;10.30;;;8.20;;
52934;SDS011;38802;50.198;19.796;2024-01-15T00:38:32;10.90;;;8.90;;
52934;SDS011;38802;50.198;19.796;2024-01-15T00:40:59;14.20;;;8.50;;
52934;SDS011;38802;50.198;19.796;2024-01-15T00:43:27;12.50;;;8.90;;
52934;SDS011;38802;50.198;19.796;2024-01-15T00:45:55;11.50;;;8.00;;
52934;SDS011;38802;50.198;19.796;2024-01-15T00:48:24;14.20;;;8.80;;
52934;SDS011;38802;50.198;19.796;2024-01-15T00:54:18;11.70;;;8.30;;
52934;SDS011;38802;50.198;19.796;2024-01-15T00:56:46;11.00;;;7.60;;
52934;SDS011;38802;50.198;19.796;2024-01-15T00:59:14;8.00;;;7.10;;
52934;SDS011;38802;50.198;19.796;2024-01-15T01:01:45;10.10;;;6.90;;
52934;SDS011;38802;50.198;19.796;2024-01-15T01:04:15;10.60;;;7.70;;
52934;SDS011;38802;50.198;19.796;2024-01-15T01:06:43;9.10;;;6.90;;
52934;SDS011;38802;50.198;19.796;2024-01-15T01:09:11;9.60;;;6.80;;
52934;SDS011;38802;50.198;19.796;2024-01-15T01:11:40;10.80;;;7.70;;
52934;SDS011;38802;50.198;19.796;2024-01-15T01:14:08;7.90;;;7.10;;
52934;SDS011;38802;50.198;19.796;2024-01-15T01:16:36;8.40;;;6.70;;
52934;SDS011;38802;50.198;19.796;2024-01-15T01:19:07;12.80;;;6.30;;
52934;SDS011;38802;50.198;19.796;2024-01-15T01:21:36;9.50;;;6.60;;
52934;SDS011;38802;50.198;19.796;2024-01-15T01:24:04;10.10;;;7.00;;
52934;SDS011;38802;50.198;19.796;2024-01-15T01:26:32;9.00;;;6.80;;
52934;SDS011;38802;50.198;19.796;2024-01-15T01:29:00;7.60;;;6.40;;
52934;SDS011;38802;50.198;19.796;2024-01-15T01:31:28;8.20;;;6.50;;
52934;SDS011;38802;50.198;19.796;2024-01-15T01:33:57;10.00;;;7.20;;
52934;SDS011;38802;50.198;19.796;2024-01-15T01:36:25;7.60;;;6.30;;
52934;SDS011;38802;50.198;19.796;2024-01-15T01:38:53;7.20;;;6.30;;
52934;SDS011;38802;50.198;19.796;2024-01-15T01:41:21;9.00;;;6.80;;
52934;SDS011;38802;50.198;19.796;2024-01-15T01:43:51;9.40;;;7.60;;
52934;SDS011;38802;50.198;19.796;2024-01-15T01:46:19;8.90;;;6.80;;
52934;SDS011;38802;50.198;19.796;2024-01-15T01:48:48;8.40;;;7.60;;
52934;SDS011;38802;50.198;19.796;2024-01-15T01:51:16;9.40;;;7.20;;
52934;SDS011;38802;50.198;19.796;2024-01-15T01:53:44;8.30;;;7.40;;
52934;SDS011;38802;50.198;19.796;2024-01-15T01:56:13;10.90;;;7.80;;
52934;SDS011;38802;50.198;19.796;2024-01-15T01:58:42;11.20;;;7.30;;
52934;SDS011;38802;50.198;19.796;2024-01-15T02:01:12;11.00;;;6.90;;
52934;SDS011;38802;50.198;19.796;2024-01-15T02:03:40;8.70;;;6.90;;
52934;SDS011;38802;50.198;19.796;2024-01-15T02:06:09;7.50;;;6.80;;
52934;SDS011;38802;50.198;19.796;2024-01-15T02:08:37;12.20;;;7.60;;
52934;SDS011;38802;50.198;19.796;2024-01-15T02:11:06;8.60;;;7.40;;
52934;SDS011;38802;50.198;19.796;2024-01-15T02:13:36;7.70;;;6.80;;
52934;SDS011;38802;50.198;19.796;2024-01-15T02:16:16;12.50;;;6.80;;
52934;SDS011;38802;50.198;19.796;2024-01-15T02:18:50;7.80;;;7.00;;
52934;SDS011;38802;50.198;19.796;2024-01-15T02:21:18;5.80;;;5.30;;
52934;SDS011;38802;50.198;19.796;2024-01-15T02:23:46;9.60;;;5.90;;
52934;SDS011;38802;50.198;19.796;2024-01-15T02:26:18;6.30;;;5.10;;
52934;SDS011;38802;50.198;19.796;2024-01-15T02:28:47;5.70;;;5.20;;
52934;SDS011;38802;50.198;19.796;2024-01-15T02:31:16;5.40;;;4.90;;
52934;SDS011;38802;50.198;19.796;2024-01-15T02:33:45;5.60;;;5.10;;
52934;SDS011;38802;50.198;19.796;2024-01-15T02:36:16;5.40;;;4.40;;
52934;SDS011;38802;50.198;19.796;2024-01-15T02:38:44;4.90;;;4.30;;
52934;SDS011;38802;50.198;19.796;2024-01-15T02:41:12;4.80;;;4.20;;
52934;SDS011;38802;50.198;19.796;2024-01-15T02:43:42;5.50;;;5.00;;
52934;SDS011;38802;50.198;19.796;2024-01-15T02:46:10;5.30;;;4.10;;
52934;SDS011;38802;50.198;19.796;2024-01-15T02:48:38;4.50;;;3.90;;
52934;SDS011;38802;50.198;19.796;2024-01-15T02:51:06;4.90;;;4.40;;
52934;SDS011;38802;50.198;19.796;2024-01-15T02:53:35;5.00;;;4.50;;
52934;SDS011;38802;50.198;19.796;2024-01-15T02:56:18;5.60;;;5.10;;
52934;SDS011;38802;50.198;19.796;2024-01-15T02:58:46;4.80;;;4.30;;
52934;SDS011;38802;50.198;19.796;2024-01-15T03:01:15;4.80;;;4.20;;
52934;SDS011;38802;50.198;19.796;2024-01-15T03:03:46;4.80;;;4.30;;
52934;SDS011;38802;50.198;19.796;2024-01-15T03:06:14;4.90;;;4.40;;
52934;SDS011;38802;50.198;19.796;2024-01-15T03:08:42;4.50;;;4.00;;
52934;SDS011;38802;50.198;19.796;2024-01-15T03:11:10;4.30;;;3.90;;
52934;SDS011;38802;50.198;19.796;2024-01-15T03:13:38;4.40;;;3.90;;
52934;SDS011;38802;50.198;19.796;2024-01-15T03:16:06;5.30;;;4.70;;
52934;SDS011;38802;50.198;19.796;2024-01-15T03:18:34;4.00;;;3.70;;
52934;SDS011;38802;50.198;19.796;2024-01-15T03:21:04;5.80;;;3.70;;
52934;SDS011;38802;50.198;19.796;2024-01-15T03:23:32;4.20;;;3.80;;
52934;SDS011;38802;50.198;19.796;2024-01-15T03:26:00;4.20;;;3.90;;
52934;SDS011;38802;50.198;19.796;2024-01-15T03:28:28;3.60;;;3.20;;
52934;SDS011;38802;50.198;19.796;2024-01-15T03:30:58;3.80;;;3.50;;
52934;SDS011;38802;50.198;19.796;2024-01-15T03:33:26;3.90;;;3.50;;
52934;SDS011;38802;50.198;19.796;2024-01-15T03:35:54;4.60;;;4.20;;
52934;SDS011;38802;50.198;19.796;2024-01-15T03:38:23;4.40;;;3.80;;
52934;SDS011;38802;50.198;19.796;2024-01-15T03:42:06;3.30;;;3.10;;
52934;SDS011;38802;50.198;19.796;2024-01-15T03:44:34;3.80;;;3.40;;
52934;SDS011;38802;50.198;19.796;2024-01-15T03:47:02;3.80;;;3.50;;
52934;SDS011;38802;50.198;19.796;2024-01-15T03:49:30;3.80;;;3.50;;
52934;SDS011;38802;50.198;19.796;2024-01-15T03:51:58;3.40;;;3.20;;
52934;SDS011;38802;50.198;19.796;2024-01-15T03:54:26;4.20;;;3.80;;
52934;SDS011;38802;50.198;19.796;2024-01-15T03:56:54;4.50;;;4.10;;
52934;SDS011;38802;50.198;19.796;2024-01-15T03:59:22;3.50;;;3.10;;
52934;SDS011;38802;50.198;19.796;2024-01-15T04:01:50;4.40;;;3.90;;
52934;SDS011;38802;50.198;19.796;2024-01-15T04:04:18;4.90;;;4.50;;
52934;SDS011;38802;50.198;19.796;2024-01-15T04:06:47;5.10;;;4.60;;
52934;SDS011;38802;50.198;19.796;2024-01-15T04:09:15;4.60;;;3.80;;
52934;SDS011;38802;50.198;19.796;2024-01-15T04:11:43;4.50;;;4.10;;
52934;SDS011;38802;50.198;19.796;2024-01-15T04:14:11;5.40;;;4.20;;
52934;SDS011;38802;50.198;19.796;2024-01-15T04:16:40;4.70;;;4.20;;
52934;SDS011;38802;50.198;19.796;2024-01-15T04:19:09;5.10;;;4.70;;
52934;SDS011;38802;50.198;19.796;2024-01-15T04:21:37;5.70;;;4.50;;
52934;SDS011;38802;50.198;19.796;2024-01-15T04:24:05;4.80;;;4.20;;
52934;SDS011;38802;50.198;19.796;2024-01-15T04:26:33;4.60;;;4.10;;
52934;SDS011;38802;50.198;19.796;2024-01-15T04:29:01;4.70;;;4.30;;
52934;SDS011;38802;50.198;19.796;2024-01-15T04:31:29;3.70;;;3.40;;
52934;SDS011;38802;50.198;19.796;2024-01-15T04:33:57;4.30;;;3.70;;
52934;SDS011;38802;50.198;19.796;2024-01-15T04:36:25;3.80;;;3.50;;
52934;SDS011;38802;50.198;19.796;2024-01-15T04:38:53;5.10;;;4.50;;
52934;SDS011;38802;50.198;19.796;2024-01-15T04:41:21;3.60;;;3.30;;
52934;SDS011;38802;50.198;19.796;2024-01-15T04:43:49;4.00;;;3.70;;
52934;SDS011;38802;50.198;19.796;2024-01-15T04:46:18;3.80;;;3.40;;
52934;SDS011;38802;50.198;19.796;2024-01-15T04:48:47;3.90;;;3.60;;
52934;SDS011;38802;50.198;19.796;2024-01-15T04:51:15;4.40;;;3.40;;
52934;SDS011;38802;50.198;19.796;2024-01-15T04:53:44;3.70;;;3.40;;
52934;SDS011;38802;50.198;19.796;2024-01-15T04:56:12;4.30;;;3.90;;
52934;SDS011;38802;50.198;19.796;2024-01-15T04:58:40;3.70;;;3.40;;
52934;SDS011;38802;50.198;19.796;2024-01-15T05:01:08;4.80;;;3.90;;
52934;SDS011;38802;50.198;19.796;2024-01-15T05:03:36;3.30;;;3.00;;
52934;SDS011;38802;50.198;19.796;2024-01-15T05:06:05;3.60;;;3.30;;
52934;SDS011;38802;50.198;19.796;2024-01-15T05:08:33;4.60;;;4.20;;
52934;SDS011;38802;50.198;19.796;2024-01-15T05:11:02;3.80;;;3.50;;
52934;SDS011;38802;50.198;19.796;2024-01-15T05:13:30;4.60;;;3.50;;
52934;SDS011;38802;50.198;19.796;2024-01-15T05:15:59;4.20;;;3.80;;
52934;SDS011;38802;50.198;19.796;2024-01-15T05:18:27;3.00;;;2.70;;
52934;SDS011;38802;50.198;19.796;2024-01-15T05:20:55;4.60;;;3.50;;
52934;SDS011;38802;50.198;19.796;2024-01-15T05:23:23;5.20;;;3.60;;
52934;SDS011;38802;50.198;19.796;2024-01-15T05:25:51;4.80;;;3.30;;
52934;SDS011;38802;50.198;19.796;2024-01-15T05:28:19;4.00;;;3.40;;
52934;SDS011;38802;50.198;19.796;2024-01-15T05:30:47;3.60;;;3.30;;
52934;SDS011;38802;50.198;19.796;2024-01-15T05:33:16;5.30;;;3.30;;
52934;SDS011;38802;50.198;19.796;2024-01-15T05:35:44;4.10;;;3.80;;
52934;SDS011;38802;50.198;19.796;2024-01-15T05:38:12;3.60;;;3.30;;
52934;SDS011;38802;50.198;19.796;2024-01-15T05:40:40;5.20;;;3.60;;
52934;SDS011;38802;50.198;19.796;2024-01-15T05:43:08;3.70;;;3.30;;
52934;SDS011;38802;50.198;19.796;2024-01-15T05:45:37;4.40;;;4.00;;
52934;SDS011;38802;50.198;19.796;2024-01-15T05:48:06;5.00;;;3.20;;
52934;SDS011;38802;50.198;19.796;2024-01-15T05:50:34;5.20;;;4.40;;
52934;SDS011;38802;50.198;19.796;2024-01-15T05:53:03;6.90;;;3.50;;
52934;SDS011;38802;50.198;19.796;2024-01-15T05:55:31;3.90;;;3.60;;
52934;SDS011;38802;50.198;19.796;2024-01-15T05:57:59;4.00;;;3.40;;
52934;SDS011;38802;50.198;19.796;2024-01-15T06:00:27;4.10;;;3.80;;
52934;SDS011;38802;50.198;19.796;2024-01-15T06:02:55;3.90;;;3.60;;
52934;SDS011;38802;50.198;19.796;2024-01-15T06:05:24;4.30;;;3.90;;
52934;SDS011;38802;50.198;19.796;2024-01-15T06:07:52;5.70;;;4.10;;
52934;SDS011;38802;50.198;19.796;2024-01-15T06:10:20;4.20;;;3.90;;
52934;SDS011;38802;50.198;19.796;2024-01-15T06:12:48;4.00;;;3.70;;
52934;SDS011;38802;50.198;19.796;2024-01-15T06:15:16;5.70;;;3.80;;
52934;SDS011;38802;50.198;19.796;2024-01-15T06:17:44;4.00;;;3.60;;
52934;SDS011;38802;50.198;19.796;2024-01-15T06:20:12;3.40;;;3.10;;
52934;SDS011;38802;50.198;19.796;2024-01-15T06:22:41;4.20;;;3.90;;
52934;SDS011;38802;50.198;19.796;2024-01-15T06:25:09;4.20;;;3.50;;
52934;SDS011;38802;50.198;19.796;2024-01-15T06:27:37;4.10;;;3.80;;
52934;SDS011;38802;50.198;19.796;2024-01-15T06:30:05;4.40;;;4.00;;
52934;SDS011;38802;50.198;19.796;2024-01-15T06:32:34;4.40;;;4.10;;
52934;SDS011;38802;50.198;19.796;2024-01-15T06:35:02;5.10;;;4.20;;
52934;SDS011;38802;50.198;19.796;2024-01-15T06:37:32;5.60;;;4.20;;
52934;SDS011;38802;50.198;19.796;2024-01-15T06:40:00;3.60;;;3.30;;
52934;SDS011;38802;50.198;19.796;2024-01-15T06:42:28;4.40;;;3.90;;
52934;SDS011;38802;50.198;19.796;2024-01-15T06:44:56;4.00;;;3.60;;
52934;SDS011;38802;50.198;19.796;2024-01-15T06:47:24;4.60;;;4.20;;
52934;SDS011;38802;50.198;19.796;2024-01-15T06:49:52;4.70;;;4.30;;
52934;SDS011;38802;50.198;19.796;2024-01-15T06:52:20;5.80;;;4.10;;
52934;SDS011;38802;50.198;19.796;2024-01-15T06:54:48;3.90;;;3.60;;
52934;SDS011;38802;50.198;19.796;2024-01-15T06:57:17;5.40;;;4.80;;
52934;SDS011;38802;50.198;19.796;2024-01-15T06:59:45;4.10;;;3.70;;
52934;SDS011;38802;50.198;19.796;2024-01-15T07:02:13;4.40;;;4.00;;
52934;SDS011;38802;50.198;19.796;2024-01-15T07:04:41;4.60;;;4.10;;
52934;SDS011;38802;50.198;19.796;2024-01-15T07:07:11;3.90;;;3.60;;
52934;SDS011;38802;50.198;19.796;2024-01-15T07:09:39;4.50;;;4.20;;
52934;SDS011;38802;50.198;19.796;2024-01-15T07:12:06;4.40;;;4.10;;
52934;SDS011;38802;50.198;19.796;2024-01-15T07:14:35;5.10;;;4.20;;
52934;SDS011;38802;50.198;19.796;2024-01-15T07:17:03;7.70;;;5.00;;
52934;SDS011;38802;50.198;19.796;2024-01-15T07:19:31;5.30;;;4.80;;
52934;SDS011;38802;50.198;19.796;2024-01-15T07:21:59;5.00;;;4.50;;
52934;SDS011;38802;50.198;19.796;2024-01-15T07:24:28;4.70;;;4.20;;
52934;SDS011;38802;50.198;19.796;2024-01-15T07:26:56;5.00;;;4.50;;
52934;SDS011;38802;50.198;19.796;2024-01-15T07:29:24;5.30;;;4.80;;
52934;SDS011;38802;50.198;19.796;2024-01-15T07:31:52;7.60;;;4.40;;
52934;SDS011;38802;50.198;19.796;2024-01-15T07:34:21;5.10;;;4.70;;
52934;SDS011;38802;50.198;19.796;2024-01-15T07:36:50;6.70;;;5.80;;
52934;SDS011;38802;50.198;19.796;2024-01-15T07:39:18;5.10;;;4.70;;
52934;SDS011;38802;50.198;19.796;2024-01-15T07:41:46;6.30;;;4.70;;
52934;SDS011;38802;50.198;19.796;2024-01-15T07:44:15;6.10;;;5.40;;
52934;SDS011;38802;50.198;19.796;2024-01-15T07:46:46;6.30;;;4.60;;
52934;SDS011;38802;50.198;19.796;2024-01-15T07:49:14;4.80;;;4.40;;
52934;SDS011;38802;50.198;19.796;2024-01-15T07:51:43;5.40;;;4.90;;
52934;SDS011;38802;50.198;19.796;2024-01-15T07:54:14;6.50;;;5.00;;
52934;SDS011;38802;50.198;19.796;2024-01-15T07:59:40;5.70;;;5.10;;
52934;SDS011;38802;50.198;19.796;2024-01-15T08:02:08;6.00;;;5.10;;
52934;SDS011;38802;50.198;19.796;2024-01-15T08:04:38;6.00;;;5.40;;
52934;SDS011;38802;50.198;19.796;2024-01-15T08:07:08;5.20;;;4.20;;
52934;SDS011;38802;50.198;19.796;2024-01-15T08:09:36;7.40;;;5.10;;
52934;SDS011;38802;50.198;19.796;2024-01-15T08:12:04;6.40;;;5.30;;
52934;SDS011;38802;50.198;19.796;2024-01-15T08:14:33;7.30;;;5.90;;
52934;SDS011;38802;50.198;19.796;2024-01-15T08:17:02;7.00;;;5.50;;
52934;SDS011;38802;50.198;19.796;2024-01-15T08:19:30;5.60;;;5.10;;
52934;SDS011;38802;50.198;19.796;2024-01-15T08:21:59;6.10;;;5.60;;
52934;SDS011;38802;50.198;19.796;2024-01-15T08:24:27;6.30;;;5.70;;
52934;SDS011;38802;50.198;19.796;2024-01-15T08:26:56;6.50;;;5.90;;
52934;SDS011;38802;50.198;19.796;2024-01-15T08:29:24;12.10;;;6.00;;
52934;SDS011;38802;50.198;19.796;2024-01-15T08:31:52;6.50;;;5.90;;
52934;SDS011;38802;50.198;19.796;2024-01-15T08:34:20;7.60;;;6.80;;
52934;SDS011;38802;50.198;19.796;2024-01-15T08:36:49;9.20;;;6.70;;
52934;SDS011;38802;50.198;19.796;2024-01-15T08:39:17;6.50;;;5.40;;
52934;SDS011;38802;50.198;19.796;2024-01-15T08:41:49;6.90;;;6.20;;
52934;SDS011;38802;50.198;19.796;2024-01-15T08:44:17;9.90;;;7.00;;
52934;SDS011;38802;50.198;19.796;2024-01-15T08:46:46;13.10;;;8.90;;
52934;SDS011;38802;50.198;19.796;2024-01-15T08:49:14;9.10;;;6.80;;
52934;SDS011;38802;50.198;19.796;2024-01-15T08:51:42;11.70;;;7.40;;
52934;SDS011;38802;50.198;19.796;2024-01-15T08:54:10;10.40;;;7.20;;
52934;SDS011;38802;50.198;19.796;2024-01-15T08:56:38;9.40;;;7.20;;
52934;SDS011;38802;50.198;19.796;2024-01-15T08:59:07;8.30;;;7.40;;
52934;SDS011;38802;50.198;19.796;2024-01-15T09:01:35;14.70;;;9.10;;
52934;SDS011;38802;50.198;19.796;2024-01-15T09:04:03;10.10;;;7.50;;
52934;SDS011;38802;50.198;19.796;2024-01-15T09:06:32;7.30;;;6.60;;
52934;SDS011;38802;50.198;19.796;2024-01-15T09:09:00;16.10;;;8.20;;
52934;SDS011;38802;50.198;19.796;2024-01-15T09:11:28;9.50;;;7.50;;
52934;SDS011;38802;50.198;19.796;2024-01-15T09:13:56;13.50;;;8.90;;
52934;SDS011;38802;50.198;19.796;2024-01-15T09:16:24;11.60;;;7.80;;
52934;SDS011;38802;50.198;19.796;2024-01-15T09:18:53;8.80;;;7.90;;
52934;SDS011;38802;50.198;19.796;2024-01-15T09:21:21;9.30;;;7.20;;
52934;SDS011;38802;50.198;19.796;2024-01-15T09:23:49;10.50;;;8.90;;
52934;SDS011;38802;50.198;19.796;2024-01-15T09:26:17;11.10;;;8.60;;
52934;SDS011;38802;50.198;19.796;2024-01-15T09:28:46;10.10;;;7.80;;
52934;SDS011;38802;50.198;19.796;2024-01-15T09:31:14;13.40;;;9.60;;
52934;SDS011;38802;50.198;19.796;2024-01-15T09:33:42;10.90;;;8.30;;
52934;SDS011;38802;50.198;19.796;2024-01-15T09:36:12;12.90;;;9.20;;
52934;SDS011;38802;50.198;19.796;2024-01-15T09:38:40;8.70;;;7.80;;
52934;SDS011;38802;50.198;19.796;2024-01-15T09:41:09;10.00;;;8.30;;
52934;SDS011;38802;50.198;19.796;2024-01-15T09:43:37;15.10;;;8.60;;
52934;SDS011;38802;50.198;19.796;2024-01-15T09:46:06;12.10;;;9.60;;
52934;SDS011;38802;50.198;19.796;2024-01-15T09:48:34;15.50;;;9.70;;
52934;SDS011;38802;50.198;19.796;2024-01-15T09:51:03;13.30;;;9.60;;
52934;SDS011;38802;50.198;19.796;2024-01-15T09:53:32;13.70;;;10.40;;
52934;SDS011;38802;50.198;19.796;2024-01-15T09:56:01;11.20;;;7.80;;
52934;SDS011;38802;50.198;19.796;2024-01-15T09:58:30;12.80;;;9.70;;
52934;SDS011;38802;50.198;19.796;2024-01-15T10:00:59;13.40;;;9.10;;
52934;SDS011;38802;50.198;19.796;2024-01-15T10:03:33;12.90;;;9.70;;
52934;SDS011;38802;50.198;19.796;2024-01-15T10:06:02;12.00;;;9.20;;
52934;SDS011;38802;50.198;19.796;2024-01-15T10:08:31;10.60;;;9.10;;
52934;SDS011;38802;50.198;19.796;2024-01-15T10:11:00;13.20;;;10.40;;
52934;SDS011;38802;50.198;19.796;2024-01-15T10:13:28;18.50;;;12.10;;
52934;SDS011;38802;50.198;19.796;2024-01-15T10:16:00;15.90;;;9.20;;
52934;SDS011;38802;50.198;19.796;2024-01-15T10:18:30;13.40;;;10.40;;
52934;SDS011;38802;50.198;19.796;2024-01-15T10:20:59;13.60;;;11.00;;
52934;SDS011;38802;50.198;19.796;2024-01-15T10:23:27;13.40;;;11.10;;
52934;SDS011;38802;50.198;19.796;2024-01-15T10:25:56;16.00;;;10.20;;
52934;SDS011;38802;50.198;19.796;2024-01-15T10:28:28;15.00;;;11.10;;
52934;SDS011;38802;50.198;19.796;2024-01-15T10:30:58;19.10;;;10.40;;
52934;SDS011;38802;50.198;19.796;2024-01-15T10:33:27;14.00;;;9.40;;
52934;SDS011;38802;50.198;19.796;2024-01-15T10:35:56;12.50;;;10.70;;
52934;SDS011;38802;50.198;19.796;2024-01-15T10:38:25;12.50;;;9.60;;
52934;SDS011;38802;50.198;19.796;2024-01-15T10:40:54;15.50;;;10.60;;
52934;SDS011;38802;50.198;19.796;2024-01-15T10:43:24;20.70;;;11.00;;
52934;SDS011;38802;50.198;19.796;2024-01-15T10:45:56;13.70;;;10.50;;
52934;SDS011;38802;50.198;19.796;2024-01-15T10:48:24;15.30;;;10.80;;
52934;SDS011;38802;50.198;19.796;2024-01-15T10:50:54;13.50;;;9.80;;
52934;SDS011;38802;50.198;19.796;2024-01-15T10:53:22;13.40;;;10.20;;
52934;SDS011;38802;50.198;19.796;2024-01-15T10:55:51;15.70;;;11.10;;
52934;SDS011;38802;50.198;19.796;2024-01-15T10:58:20;14.70;;;10.10;;
52934;SDS011;38802;50.198;19.796;2024-01-15T11:00:50;18.90;;;11.30;;
52934;SDS011;38802;50.198;19.796;2024-01-15T11:03:18;17.80;;;11.30;;
52934;SDS011;38802;50.198;19.796;2024-01-15T11:05:47;16.00;;;10.60;;
52934;SDS011;38802;50.198;19.796;2024-01-15T11:08:16;14.50;;;10.10;;
52934;SDS011;38802;50.198;19.796;2024-01-15T11:10:46;17.50;;;11.80;;
52934;SDS011;38802;50.198;19.796;2024-01-15T11:13:21;17.00;;;11.50;;
52934;SDS011;38802;50.198;19.796;2024-01-15T11:18:38;17.20;;;11.90;;
52934;SDS011;38802;50.198;19.796;2024-01-15T11:23:51;15.00;;;10.90;;
52934;SDS011;38802;50.198;19.796;2024-01-15T11:29:29;15.10;;;10.20;;
52934;SDS011;38802;50.198;19.796;2024-01-15T11:34:51;19.80;;;12.70;;
52934;SDS011;38802;50.198;19.796;2024-01-15T11:37:21;31.10;;;13.70;;
52934;SDS011;38802;50.198;19.796;2024-01-15T11:39:52;19.60;;;11.60;;
52934;SDS011;38802;50.198;19.796;2024-01-15T11:42:22;20.40;;;12.80;;
52934;SDS011;38802;50.198;19.796;2024-01-15T11:44:52;18.80;;;12.00;;
52934;SDS011;38802;50.198;19.796;2024-01-15T11:47:26;17.90;;;12.30;;
52934;SDS011;38802;50.198;19.796;2024-01-15T11:50:20;14.10;;;10.90;;
52934;SDS011;38802;50.198;19.796;2024-01-15T11:53:00;19.30;;;12.00;;
52934;SDS011;38802;50.198;19.796;2024-01-15T11:55:34;18.70;;;11.70;;
52934;SDS011;38802;50.198;19.796;2024-01-15T11:58:10;16.90;;;11.80;;
52934;SDS011;38802;50.198;19.796;2024-01-15T12:00:39;16.90;;;11.20;;
52934;SDS011;38802;50.198;19.796;2024-01-15T12:03:10;20.50;;;11.30;;
52934;SDS011;38802;50.198;19.796;2024-01-15T12:05:39;17.60;;;11.50;;
52934;SDS011;38802;50.198;19.796;2024-01-15T12:08:07;18.80;;;12.30;;
52934;SDS011;38802;50.198;19.796;2024-01-15T12:10:40;15.70;;;10.50;;
52934;SDS011;38802;50.198;19.796;2024-01-15T12:13:13;17.20;;;12.00;;
52934;SDS011;38802;50.198;19.796;2024-01-15T12:15:43;16.30;;;10.60;;
52934;SDS011;38802;50.198;19.796;2024-01-15T12:18:16;26.50;;;11.40;;
52934;SDS011;38802;50.198;19.796;2024-01-15T12:20:46;17.80;;;11.50;;
52934;SDS011;38802;50.198;19.796;2024-01-15T12:23:16;18.70;;;11.50;;
52934;SDS011;38802;50.198;19.796;2024-01-15T12:25:45;14.30;;;11.20;;
52934;SDS011;38802;50.198;19.796;2024-01-15T12:28:15;20.00;;;11.40;;
52934;SDS011;38802;50.198;19.796;2024-01-15T12:30:46;21.20;;;12.10;;
52934;SDS011;38802;50.198;19.796;2024-01-15T12:33:20;15.60;;;10.90;;
52934;SDS011;38802;50.198;19.796;2024-01-15T12:35:48;19.90;;;11.30;;
52934;SDS011;38802;50.198;19.796;2024-01-15T12:38:18;15.10;;;10.90;;
52934;SDS011;38802;50.198;19.796;2024-01-15T12:41:22;18.70;;;11.90;;
52934;SDS011;38802;50.198;19.796;2024-01-15T12:43:51;16.80;;;12.10;;
52934;SDS011;38802;50.198;19.796;2024-01-15T12:46:20;15.60;;;11.40;;
52934;SDS011;38802;50.198;19.796;2024-01-15T12:48:48;17.80;;;11.30;;
52934;SDS011;38802;50.198;19.796;2024-01-15T12:51:16;16.80;;;11.10;;
52934;SDS011;38802;50.198;19.796;2024-01-15T12:53:44;19.90;;;11.80;;
52934;SDS011;38802;50.198;19.796;2024-01-15T12:56:12;14.10;;;11.50;;
52934;SDS011;38802;50.198;19.796;2024-01-15T12:58:40;17.10;;;12.90;;
52934;SDS011;38802;50.198;19.796;2024-01-15T13:01:09;18.90;;;11.50;;
52934;SDS011;38802;50.198;19.796;2024-01-15T13:03:38;16.10;;;11.30;;
52934;SDS011;38802;50.198;19.796;2024-01-15T13:06:06;18.10;;;12.70;;
52934;SDS011;38802;50.198;19.796;2024-01-15T13:08:35;18.90;;;12.80;;
52934;SDS011;38802;50.198;19.796;2024-01-15T13:11:07;19.30;;;12.20;;
52934;SDS011;38802;50.198;19.796;2024-01-15T13:13:43;20.20;;;12.80;;
52934;SDS011;38802;50.198;19.796;2024-01-15T13:16:11;15.70;;;11.50;;
52934;SDS011;38802;50.198;19.796;2024-01-15T13:18:39;18.10;;;11.10;;
52934;SDS011;38802;50.198;19.796;2024-01-15T13:21:09;17.80;;;12.10;;
52934;SDS011;38802;50.198;19.796;2024-01-15T13:23:37;18.60;;;12.70;;
52934;SDS011;38802;50.198;19.796;2024-01-15T13:26:06;19.50;;;13.60;;
52934;SDS011;38802;50.198;19.796;2024-01-15T13:28:34;19.20;;;12.30;;
52934;SDS011;38802;50.198;19.796;2024-01-15T13:31:03;23.30;;;12.70;;
52934;SDS011;38802;50.198;19.796;2024-01-15T13:33:34;20.90;;;13.00;;
52934;SDS011;38802;50.198;19.796;2024-01-15T13:36:03;23.30;;;12.50;;
52934;SDS011;38802;50.198;19.796;2024-01-15T13:38:36;18.50;;;11.90;;
52934;SDS011;38802;50.198;19.796;2024-01-15T13:41:25;17.50;;;12.20;;
52934;SDS011;38802;50.198;19.796;2024-01-15T13:43:55;19.10;;;13.20;;
52934;SDS011;38802;50.198;19.796;2024-01-15T13:46:24;18.90;;;12.00;;
52934;SDS011;38802;50.198;19.796;2024-01-15T13:48:57;20.30;;;12.70;;
52934;SDS011;38802;50.198;19.796;2024-01-15T13:51:25;20.60;;;11.50;;
52934;SDS011;38802;50.198;19.796;2024-01-15T13:53:53;16.80;;;12.30;;
52934;SDS011;38802;50.198;19.796;2024-01-15T13:56:21;18.60;;;11.70;;
52934;SDS011;38802;50.198;19.796;2024-01-15T13:58:50;21.40;;;12.70;;
52934;SDS011;38802;50.198;19.796;2024-01-15T14:01:19;19.60;;;10.40;;
52934;SDS011;38802;50.198;19.796;2024-01-15T14:03:47;18.40;;;11.70;;
52934;SDS011;38802;50.198;19.796;2024-01-15T14:06:16;20.90;;;12.50;;
52934;SDS011;38802;50.198;19.796;2024-01-15T14:08:44;19.20;;;12.60;;
52934;SDS011;38802;50.198;19.796;2024-01-15T14:11:12;16.50;;;11.20;;
52934;SDS011;38802;50.198;19.796;2024-01-15T14:13:41;18.30;;;11.40;;
52934;SDS011;38802;50.198;19.796;2024-01-15T14:16:09;17.40;;;10.50;;
52934;SDS011;38802;50.198;19.796;2024-01-15T14:18:38;17.90;;;11.10;;
52934;SDS011;38802;50.198;19.796;2024-01-15T14:21:06;14.70;;;10.80;;
52934;SDS011;38802;50.198;19.796;2024-01-15T14:23:35;20.30;;;11.50;;
52934;SDS011;38802;50.198;19.796;2024-01-15T14:26:03;16.70;;;11.30;;
52934;SDS011;38802;50.198;19.796;2024-01-15T14:28:32;18.00;;;11.40;;
52934;SDS011;38802;50.198;19.796;2024-01-15T14:31:01;16.30;;;11.00;;
52934;SDS011;38802;50.198;19.796;2024-01-15T14:33:30;15.50;;;11.00;;
52934;SDS011;38802;50.198;19.796;2024-01-15T14:36:01;18.50;;;11.70;;
52934;SDS011;38802;50.198;19.796;2024-01-15T14:38:29;16.60;;;11.10;;
52934;SDS011;38802;50.198;19.796;2024-01-15T14:40:57;17.00;;;11.00;;
52934;SDS011;38802;50.198;19.796;2024-01-15T14:43:25;14.30;;;10.60;;
52934;SDS011;38802;50.198;19.796;2024-01-15T14:45:53;14.80;;;10.60;;
52934;SDS011;38802;50.198;19.796;2024-01-15T14:48:21;18.80;;;11.60;;
52934;SDS011;38802;50.198;19.796;2024-01-15T14:50:49;15.30;;;10.70;;
52934;SDS011;38802;50.198;19.796;2024-01-15T14:53:18;16.20;;;10.90;;